Time;durP1;ratioP1;P1;durP2;ratioP2;P2;SDS_P1;SDS_P2;PMS_P1;PMS_P2;Temp;Humidity;BMP_temperature;BMP_pressure;BME280_temperature;BME280_humidity;BME280_pressure;Samples;Min_cycle;Max_cycle;Signal;HPM_P1;HPM_P2
2022/01/05 00:00:32;;;;;;;13.32;3.30;;;;;;;2.33;87.69;99968.28;6342161;23;20066;-84
2022/01/05 00:03:06;;;;;;;13.75;3.45;;;;;;;2.29;87.73;99969.13;6341665;23;20053;-84
2022/01/05 00:05:38;;;;;;;14.25;3.40;;;;;;;2.28;87.21;99969.97;6342026;23;20022;-84
2022/01/05 00:08:51;;;;;;;16.10;3.70;;;;;;;2.34;86.45;99978.59;6340804;23;20010;-82
2022/01/05 00:11:25;;;;;;;16.13;3.90;;;;;;;2.29;86.87;99982.00;6340855;23;20010;-85
2022/01/05 00:14:36;;;;;;;15.65;5.35;;;;;;;2.24;86.88;99976.81;6341365;23;20102;-83
2022/01/05 00:17:28;;;;;;;13.95;3.40;;;;;;;2.14;86.78;99975.00;6340985;23;20149;-84
2022/01/05 00:20:07;;;;;;;20.85;3.35;;;;;;;2.10;86.72;99975.84;6341014;23;20089;-80
2022/01/05 00:23:01;;;;;;;13.85;3.03;;;;;;;2.12;86.89;99977.56;6343497;23;20007;-85
2022/01/05 00:26:03;;;;;;;30.13;5.15;;;;;;;2.12;86.97;99980.13;6345912;23;20019;-87
2022/01/05 00:28:35;;;;;;;16.58;3.53;;;;;;;1.97;87.47;99969.72;6346316;23;20007;-85
2022/01/05 00:31:37;;;;;;;9.83;3.57;;;;;;;1.98;87.44;99974.00;6321807;23;20028;-79
2022/01/05 00:34:46;;;;;;;14.35;3.50;;;;;;;1.98;87.28;99980.03;6346526;23;20018;-87
2022/01/05 00:37:28;;;;;;;11.75;3.40;;;;;;;1.93;87.96;99975.66;6424251;23;20012;-84
2022/01/05 00:40:21;;;;;;;11.50;4.28;;;;;;;1.89;88.03;99977.34;6471675;23;20067;-86
2022/01/05 00:43:23;;;;;;;15.45;3.35;;;;;;;1.80;88.17;99982.41;6473212;23;20019;-87
2022/01/05 00:45:57;;;;;;;15.63;4.35;;;;;;;1.78;87.58;99984.09;6476766;23;20056;-86
2022/01/05 00:48:52;;;;;;;13.90;3.75;;;;;;;1.71;87.97;99987.47;6481595;23;20073;-87
2022/01/05 00:51:36;;;;;;;10.95;2.85;;;;;;;1.73;87.58;99990.91;6489286;23;20000;-85
2022/01/05 00:54:07;;;;;;;18.00;3.85;;;;;;;1.67;87.61;99989.13;6487315;23;20012;-78
2022/01/05 00:56:38;;;;;;;14.53;3.47;;;;;;;1.65;87.17;99990.81;6490868;23;20007;-82
2022/01/05 00:59:25;;;;;;;13.80;4.03;;;;;;;1.67;87.31;100007.09;6484069;23;20024;-89
2022/01/05 01:02:39;;;;;;;11.48;3.20;;;;;;;1.62;87.43;100014.75;6482298;23;20005;-86
2022/01/05 01:05:32;;;;;;;17.83;3.50;;;;;;;1.57;87.29;100015.56;6454133;23;20015;-79
2022/01/05 01:08:06;;;;;;;;;;;;;;;1.47;87.79;100011.19;6479160;23;20107;-88
2022/01/05 01:11:30;;;;;;;15.90;3.95;;;;;;;1.44;87.96;100010.28;6476972;23;19990;-79
2022/01/05 01:14:13;;;;;;;13.13;3.65;;;;;;;1.34;88.20;99997.31;6478096;23;20005;-90
2022/01/05 01:16:54;;;;;;;12.80;4.05;;;;;;;1.33;87.55;99990.47;6411267;23;20005;-82
2022/01/05 01:20:06;;;;;;;13.52;3.40;;;;;;;1.31;88.20;100023.81;6411908;23;20401;-84
2022/01/05 01:22:53;;;;;;;15.68;4.80;;;;;;;1.26;88.23;100007.50;6411466;23;20010;-87
2022/01/05 01:26:02;;;;;;;;;;;;;;;;;;;;;
2022/01/05 01:28:34;;;;;;;18.63;4.03;;;;;;;1.25;87.71;100004.03;6410505;23;20021;-86
2022/01/05 01:31:51;;;;;;;18.07;4.20;;;;;;;1.28;87.73;100018.63;6411164;23;20021;-87
2022/01/05 01:37:58;;;;;;;16.73;3.63;;;;;;;1.23;87.64;100033.13;6290876;23;20023;-89
2022/01/05 01:45:08;;;;;;;15.05;3.83;;;;;;;1.09;88.06;100030.38;6290782;23;20031;-86
2022/01/05 01:47:48;;;;;;;13.40;3.30;;;;;;;1.03;88.05;100028.59;6303066;23;20023;-80
2022/01/05 01:50:20;;;;;;;16.52;3.80;;;;;;;1.02;87.64;100021.72;6319509;23;20074;-84
2022/01/05 01:52:52;;;;;;;12.53;3.40;;;;;;;1.01;87.48;100022.56;6266424;23;20462;-82
2022/01/05 01:55:24;;;;;;;15.00;3.47;;;;;;;1.01;86.96;100009.72;6267712;23;20017;-91
2022/01/05 01:57:55;;;;;;;16.90;3.57;;;;;;;0.97;87.33;100025.09;6266872;23;20378;-92
2022/01/05 02:00:29;;;;;;;18.17;4.07;;;;;;;0.95;87.67;100025.06;6291287;23;20091;-89
2022/01/05 02:03:00;;;;;;;13.60;3.37;;;;;;;0.93;87.38;100028.44;6266929;23;20019;-80
2022/01/05 02:05:32;;;;;;;13.10;4.23;;;;;;;0.94;86.67;100033.59;6267870;23;20048;-88
2022/01/05 02:08:03;;;;;;;10.33;3.33;;;;;;;0.98;86.37;100032.78;6297504;23;20063;-81
2022/01/05 02:10:36;;;;;;;11.63;3.83;;;;;;;0.95;85.72;100019.03;6320241;23;20037;-80
2022/01/05 02:13:07;;;;;;;13.40;3.08;;;;;;;0.96;85.98;100029.34;6423572;23;20017;-84
2022/01/05 02:15:43;;;;;;;20.60;3.83;;;;;;;0.90;85.55;100025.00;6396015;23;20435;-91
2022/01/05 02:18:58;;;;;;;12.98;4.05;;;;;;;0.90;85.67;100024.09;6419005;23;20016;-83
2022/01/05 02:21:14;;;;;;;16.42;3.78;;;;;;;0.93;85.20;100033.56;6414685;23;20010;-87
2022/01/05 02:23:46;;;;;;;14.57;3.05;;;;;;;0.96;84.78;100028.47;6414632;23;20012;-91
2022/01/05 02:26:18;;;;;;;10.20;3.23;;;;;;;0.91;84.94;100030.97;6415490;23;20386;-80
2022/01/05 02:28:50;;;;;;;16.40;3.55;;;;;;;0.94;84.68;100032.75;6416217;23;20005;-88
2022/01/05 02:31:21;;;;;;;14.07;3.83;;;;;;;0.87;84.72;100044.59;6414232;23;20011;-84
2022/01/05 02:33:53;;;;;;;14.50;4.43;;;;;;;0.76;85.70;100041.00;6386814;23;20032;-86
2022/01/05 02:36:24;;;;;;;12.97;2.77;;;;;;;0.71;85.90;100041.81;6388091;23;20021;-87
2022/01/05 02:38:56;;;;;;;19.73;5.27;;;;;;;0.65;86.28;100035.72;6413918;23;20005;-86
2022/01/05 02:41:28;;;;;;;14.93;3.70;;;;;;;0.61;86.74;100037.41;6366685;23;20024;-86
2022/01/05 02:43:59;;;;;;;10.97;3.50;;;;;;;0.51;87.09;100043.19;6443081;23;20013;-84
2022/01/05 02:46:32;;;;;;;15.47;4.63;;;;;;;0.48;87.11;100038.00;6445185;23;20009;-85
2022/01/05 02:49:04;;;;;;;10.95;4.10;;;;;;;0.43;87.58;100043.06;6452945;23;20001;-81
2022/01/05 02:51:36;;;;;;;14.50;3.08;;;;;;;0.38;88.07;100054.09;6451826;23;20020;-87
2022/01/05 02:54:07;;;;;;;13.90;3.33;;;;;;;0.32;88.42;100050.59;6449852;23;20005;-80
2022/01/05 02:56:38;;;;;;;16.40;3.60;;;;;;;0.31;88.76;100054.00;6425318;23;20009;-88
2022/01/05 02:59:16;;;;;;;12.33;3.13;;;;;;;0.30;89.03;100064.22;6429391;23;20005;-82
2022/01/05 03:01:47;;;;;;;15.35;3.20;;;;;;;0.23;89.26;100065.81;6453874;23;20040;-79
2022/01/05 03:04:19;;;;;;;24.70;5.30;;;;;;;0.18;89.33;100072.56;6447874;23;20005;-83
2022/01/05 03:06:50;;;;;;;15.60;4.03;;;;;;;0.14;89.76;100070.78;6449579;23;20001;-80
2022/01/05 03:09:22;;;;;;;17.77;3.80;;;;;;;0.11;89.93;100071.59;6453824;23;20068;-80
2022/01/05 03:11:53;;;;;;;18.30;3.80;;;;;;;0.11;89.68;100066.47;6459990;23;20008;-79
2022/01/05 03:14:25;;;;;;;12.87;3.30;;;;;;;0.06;89.79;100072.34;6431633;23;20005;-85
2022/01/05 03:16:56;;;;;;;17.53;3.93;;;;;;;0.10;90.17;100082.66;6448028;23;20464;-84
2022/01/05 03:19:28;;;;;;;20.10;3.90;;;;;;;0.10;89.93;100082.66;6445814;23;20008;-93
2022/01/05 03:22:00;;;;;;;18.33;4.75;;;;;;;0.14;89.72;100096.41;6446213;23;20009;-79
2022/01/05 03:24:31;;;;;;;11.83;3.60;;;;;;;0.13;90.00;100094.66;6444849;23;20008;-87
2022/01/05 03:27:03;;;;;;;17.27;4.07;;;;;;;0.15;89.67;100096.44;6448747;23;20092;-82
2022/01/05 03:29:36;;;;;;;15.27;3.97;;;;;;;0.18;89.37;100098.19;6446627;23;20005;-80
2022/01/05 03:32:08;;;;;;;;;;;;;;;0.20;89.35;100105.91;6418869;23;20008;-89
2022/01/05 03:34:44;;;;;;;15.00;4.07;;;;;;;0.20;89.39;100100.78;6444518;23;20317;-90
2022/01/05 03:37:15;;;;;;;14.88;3.35;;;;;;;0.16;89.73;100100.72;6445303;23;20272;-89
2022/01/05 03:39:47;;;;;;;15.47;4.07;;;;;;;0.06;90.00;100109.06;6442892;23;20091;-86
2022/01/05 03:42:19;;;;;;;14.93;3.67;;;;;;;0.05;89.55;100107.34;6420019;23;20013;-85
2022/01/05 03:44:51;;;;;;;14.02;3.58;;;;;;;0.03;89.98;100114.13;6446028;23;20009;-89
2022/01/05 03:47:22;;;;;;;12.33;3.87;;;;;;;0.02;90.14;100126.91;6447145;23;20005;-88
2022/01/05 03:49:53;;;;;;;17.17;4.53;;;;;;;-0.02;89.93;100113.19;6425163;23;20005;-86
2022/01/05 03:52:25;;;;;;;17.63;3.77;;;;;;;0.04;89.75;100117.56;6431198;23;20019;-76
2022/01/05 03:54:57;;;;;;;14.90;3.03;;;;;;;0.10;89.14;100118.56;6459425;23;20012;-91
2022/01/05 03:57:28;;;;;;;18.90;4.20;;;;;;;0.19;89.21;100125.53;6461157;23;20353;-82
2022/01/05 04:00:00;;;;;;;16.43;4.13;;;;;;;0.24;88.66;100123.94;6459077;23;20016;-81
2022/01/05 04:02:31;;;;;;;11.83;3.67;;;;;;;0.31;88.84;100114.66;6455578;23;20028;-80
2022/01/05 04:05:03;;;;;;;15.77;3.47;;;;;;;0.34;87.87;100115.56;6453393;23;20087;-91
2022/01/05 04:07:34;;;;;;;20.00;3.20;;;;;;;0.37;87.84;100119.88;6456876;23;20447;-80
2022/01/05 04:10:06;;;;;;;16.87;3.57;;;;;;;0.46;87.23;100122.59;6447623;23;20084;-92
2022/01/05 04:12:38;;;;;;;18.53;3.90;;;;;;;0.48;86.98;100112.38;6421729;23;20071;-85
2022/01/05 04:27:16;;;;;;;17.20;4.18;;;;;;;0.39;86.21;100125.91;6445624;23;20028;-90
2022/01/05 04:30:19;;;;;;;12.10;3.13;;;;;;;0.34;87.00;100130.09;6445185;23;20028;-81
2022/01/05 04:33:45;;;;;;;21.58;4.88;;;;;;;0.29;86.90;100140.28;6444502;23;20045;-88
2022/01/05 04:37:09;;;;;;;17.52;4.15;;;;;;;0.23;87.05;100139.28;6295334;23;20049;-86
2022/01/05 04:47:01;;;;;;;18.42;4.13;;;;;;;0.16;88.14;100151.09;6290062;23;20018;-81
2022/01/05 04:50:14;;;;;;;21.85;3.65;;;;;;;0.15;88.65;100157.09;6267633;23;20011;-81
2022/01/05 04:52:54;;;;;;;23.40;5.03;;;;;;;0.20;88.35;100150.34;6247558;23;20038;-82
2022/01/05 04:56:06;;;;;;;15.90;3.45;;;;;;;0.33;88.49;100154.84;6274454;23;20034;-78
2022/01/05 04:58:51;;;;;;;17.20;4.68;;;;;;;0.50;87.26;100142.34;6400756;23;20025;-77
2022/01/05 05:01:32;;;;;;;24.30;4.75;;;;;;;0.64;87.75;100149.41;6458455;23;20001;-86
2022/01/05 05:08:22;;;;;;;16.15;4.25;;;;;;;0.89;86.77;100153.28;6445711;23;20016;-87
2022/01/05 05:14:36;;;;;;;15.48;3.47;;;;;;;1.06;86.22;100168.94;6447141;23;20021;-80
2022/01/05 05:24:17;;;;;;;17.80;3.97;;;;;;;1.05;86.96;100164.66;6447758;23;20009;-84
2022/01/05 05:44:23;;;;;;;14.45;5.05;;;;;;;0.91;87.17;100152.44;6440187;23;20025;-83
2022/01/05 05:47:33;;;;;;;21.02;3.58;;;;;;;0.86;88.09;100155.78;6438909;23;20020;-82
2022/01/05 05:57:06;;;;;;;22.75;5.40;;;;;;;0.82;87.65;100161.69;6439540;23;20355;-86
2022/01/05 06:37:07;;;;;;;21.88;5.97;;;;;;;0.92;89.34;100191.81;6444724;22;20021;-84
2022/01/05 06:39:39;;;;;;;17.37;4.57;;;;;;;0.93;89.78;100208.06;6438636;23;20391;-78
2022/01/05 06:42:10;;;;;;;17.80;3.67;;;;;;;0.99;89.41;100208.19;6437553;23;20005;-81
2022/01/05 06:44:41;;;;;;;17.27;4.47;;;;;;;0.99;89.39;100219.31;6410979;23;20012;-83
2022/01/05 06:47:13;;;;;;;18.67;4.27;;;;;;;1.00;89.51;100218.47;6417450;23;20041;-81
2022/01/05 06:49:44;;;;;;;17.33;4.03;;;;;;;1.06;89.85;100221.16;6445924;23;20005;-80
2022/01/05 06:52:15;;;;;;;16.10;5.33;;;;;;;1.07;89.59;100225.41;6446102;23;20005;-77
2022/01/05 06:54:47;;;;;;;15.67;5.07;;;;;;;1.11;89.54;100215.22;6442326;23;20419;-81
2022/01/05 06:57:18;;;;;;;23.70;5.47;;;;;;;1.06;89.33;100233.97;6440937;23;20021;-79
2022/01/05 10:03:44;;;;;;;25.85;4.90;;;;;;;3.56;85.05;100411.31;6424826;23;20708;-81
2022/01/05 10:06:16;;;;;;;21.30;5.73;;;;;;;3.54;85.31;100402.72;6437094;23;20047;-81
2022/01/05 10:08:47;;;;;;;16.33;4.50;;;;;;;3.62;84.85;100412.28;6440634;23;20013;-77
2022/01/05 10:11:23;;;;;;;18.20;5.03;;;;;;;3.74;83.34;100428.69;6412353;23;20341;-81
2022/01/05 10:13:55;;;;;;;19.98;4.32;;;;;;;3.70;85.39;100404.59;6436861;23;20048;-80
2022/01/05 10:16:26;;;;;;;16.73;4.03;;;;;;;3.85;83.56;100406.47;6435315;23;20312;-79
2022/01/05 13:35:27;;;;;;;27.53;6.93;;;;;;;4.83;83.86;100597.34;6435133;22;20451;-79
2022/01/05 13:37:59;;;;;;;24.08;6.10;;;;;;;4.77;83.95;100610.22;6438714;23;20248;-81
2022/01/05 13:40:33;;;;;;;26.60;8.23;;;;;;;4.83;83.34;100601.63;6448082;23;20019;-78
2022/01/05 13:43:09;;;;;;;20.95;4.55;;;;;;;4.94;83.23;100610.31;6447073;23;20008;-76
2022/01/05 13:45:48;;;;;;;23.73;6.82;;;;;;;4.89;83.10;100623.22;6423009;23;20013;-76
2022/01/05 13:48:28;;;;;;;22.88;6.22;;;;;;;4.80;84.77;100623.16;6449262;23;20013;-78
2022/01/05 13:51:07;;;;;;;24.13;6.15;;;;;;;4.64;85.94;100626.47;6445154;23;20009;-80
2022/01/05 13:53:44;;;;;;;24.60;6.65;;;;;;;4.53;86.27;100629.78;6445829;23;20013;-82
2022/01/05 13:56:16;;;;;;;19.90;5.55;;;;;;;4.47;87.49;100632.31;6443760;23;20083;-78
2022/01/05 13:58:54;;;;;;;22.73;6.18;;;;;;;4.40;88.32;100629.69;6445390;23;20005;-83
2022/01/05 14:01:25;;;;;;;24.50;6.75;;;;;;;4.34;88.91;100636.47;6444897;23;20009;-76
2022/01/05 14:04:08;;;;;;;24.90;7.37;;;;;;;4.31;90.05;100638.16;6442353;23;20037;-77
2022/01/05 14:06:40;;;;;;;24.75;7.65;;;;;;;4.32;89.47;100634.75;6443738;23;20245;-79
2022/01/05 14:09:11;;;;;;;25.07;8.30;;;;;;;4.31;89.32;100662.25;6452295;23;20008;-78
2022/01/05 14:11:43;;;;;;;33.23;8.10;;;;;;;4.33;89.24;100668.31;6452568;23;20247;-82
2022/01/05 14:14:14;;;;;;;27.67;7.60;;;;;;;4.38;88.58;100661.47;6451903;23;20315;-77
2022/01/05 14:16:50;;;;;;;20.30;4.70;;;;;;;4.42;88.37;100666.69;6451796;23;20031;-81
2022/01/05 14:19:29;;;;;;;26.75;5.15;;;;;;;4.45;88.30;100672.72;6452378;23;20009;-86
2022/01/05 14:22:08;;;;;;;27.98;5.55;;;;;;;4.43;88.71;100678.72;6454593;23;20023;-80
2022/01/05 14:24:45;;;;;;;22.02;5.50;;;;;;;4.40;89.05;100661.50;6452797;23;20086;-76
2022/01/05 14:27:21;;;;;;;23.35;6.68;;;;;;;4.47;89.60;100690.81;6425001;23;20044;-79
2022/01/05 14:30:00;;;;;;;21.60;5.03;;;;;;;4.30;92.38;100693.19;6424654;23;20317;-78
2022/01/05 14:32:33;;;;;;;19.90;5.22;;;;;;;4.15;93.89;100691.31;6426293;23;20029;-81
2022/01/05 14:35:15;;;;;;;15.45;4.28;;;;;;;4.08;93.58;100702.41;6425525;23;20001;-80
2022/01/05 14:37:58;;;;;;;18.33;4.53;;;;;;;3.99;95.56;100693.72;6426800;23;20014;-82
2022/01/05 14:40:31;;;;;;;19.58;5.68;;;;;;;3.97;95.43;100713.44;6427689;23;20345;-81
2022/01/05 14:43:04;;;;;;;30.27;5.43;;;;;;;3.96;96.36;100697.94;6426519;23;20013;-80
2022/01/05 14:45:39;;;;;;;25.63;6.60;;;;;;;3.97;95.82;100699.69;6393127;23;20092;-79
2022/01/05 14:48:11;;;;;;;25.52;7.13;;;;;;;4.05;94.97;100702.38;6405064;23;20104;-77
2022/01/05 14:50:42;;;;;;;24.10;5.70;;;;;;;4.00;95.83;100710.91;6402954;23;20029;-79
2022/01/05 14:53:14;;;;;;;28.20;6.17;;;;;;;4.02;96.20;100703.19;6403166;23;20096;-80
2022/01/05 14:55:45;;;;;;;26.23;6.77;;;;;;;4.01;95.99;100712.66;6402422;23;20311;-78
2022/01/05 14:58:16;;;;;;;27.73;6.53;;;;;;;3.99;97.17;100706.63;6402880;23;20419;-78
2022/01/05 15:00:48;;;;;;;18.47;5.80;;;;;;;4.04;96.51;100723.84;6403341;23;20029;-78
2022/01/05 15:03:19;;;;;;;28.23;5.80;;;;;;;4.04;96.71;100726.44;6403136;23;20136;-80
2022/01/05 15:05:51;;;;;;;27.20;6.93;;;;;;;4.03;96.50;100715.25;6403802;23;20021;-80
2022/01/05 15:08:22;;;;;;;17.73;6.37;;;;;;;3.99;96.96;100722.09;6402826;23;20328;-78
2022/01/05 15:10:53;;;;;;;20.57;7.13;;;;;;;4.07;95.62;100734.22;6404128;23;20431;-81
2022/01/05 15:13:25;;;;;;;27.37;7.27;;;;;;;4.04;96.41;100729.00;6402883;23;20010;-78
2022/01/05 15:15:56;;;;;;;24.20;4.73;;;;;;;4.00;96.70;100741.84;6403910;23;20009;-79
2022/01/05 15:18:28;;;;;;;30.90;6.13;;;;;;;4.01;96.61;100733.28;6403781;23;20026;-80
2022/01/05 15:20:59;;;;;;;26.53;6.60;;;;;;;3.97;97.20;100740.97;6403147;23;20010;-79
2022/01/05 15:23:31;;;;;;;24.43;6.47;;;;;;;3.97;96.64;100739.25;6405922;23;20020;-80
2022/01/05 15:26:03;;;;;;;27.48;6.47;;;;;;;3.97;96.44;100741.81;6420181;23;20483;-78
2022/01/05 15:28:35;;;;;;;29.25;6.72;;;;;;;3.97;96.70;100754.72;6434684;23;20005;-82
2022/01/05 15:31:07;;;;;;;21.60;6.80;;;;;;;3.99;96.23;100760.78;6436963;23;20342;-80
2022/01/05 15:33:39;;;;;;;30.50;7.43;;;;;;;3.92;97.21;100753.78;6435196;23;20253;-82
2022/01/05 15:36:10;;;;;;;22.23;5.40;;;;;;;3.89;98.02;100758.91;6435196;23;20110;-81
2022/01/05 15:38:42;;;;;;;23.20;5.80;;;;;;;3.89;98.59;100771.78;6435751;23;20013;-79
2022/01/05 15:41:14;;;;;;;23.87;5.60;;;;;;;3.85;99.67;100777.78;6436623;23;20001;-80
2022/01/05 15:43:45;;;;;;;28.27;5.47;;;;;;;3.82;99.79;100777.72;6436408;23;20016;-79
2022/01/05 15:46:17;;;;;;;23.60;5.67;;;;;;;3.81;99.95;100791.44;6436624;23;20013;-80
2022/01/05 15:48:48;;;;;;;36.07;7.47;;;;;;;3.86;99.54;100805.28;6437824;23;20161;-79
2022/01/05 15:51:20;;;;;;;21.70;5.57;;;;;;;3.87;99.34;100809.59;6436456;23;20009;-82
2022/01/05 15:53:52;;;;;;;28.73;6.65;;;;;;;3.83;99.58;100810.38;6435723;23;20112;-80
2022/01/05 16:20:36;;;;;;;30.60;8.23;;;;;;;3.80;100.00;100846.44;6434109;23;20017;-81
2022/01/05 16:37:12;;;;;;;29.23;7.95;;;;;;;3.95;99.31;100877.63;6432474;23;20032;-77
2022/01/05 16:40:09;;;;;;;24.50;5.80;;;;;;;3.96;99.65;100881.97;6433542;23;20347;-80
2022/01/05 17:04:23;;;;;;;20.55;5.93;;;;;;;4.02;98.97;100912.13;6426829;23;20017;-81
2022/01/05 17:06:56;;;;;;;27.92;6.88;;;;;;;4.00;100.00;100919.84;6433140;23;20146;-80
2022/01/05 17:10:15;;;;;;;26.08;7.97;;;;;;;3.98;100.00;100929.28;6433108;23;20426;-82
2022/01/05 17:12:53;;;;;;;31.30;10.73;;;;;;;3.91;100.00;100914.56;6432638;23;20013;-85
2022/01/05 17:22:17;;;;;;;23.42;8.10;;;;;;;3.82;100.00;100922.13;6432854;23;20017;-79
2022/01/05 17:25:34;;;;;;;35.80;10.73;;;;;;;3.91;100.00;100942.03;6434102;23;20012;-81
2022/01/05 17:35:14;;;;;;;31.85;8.68;;;;;;;3.78;100.00;100938.38;6433116;23;20017;-79
2022/01/05 18:35:51;;;;;;;13.90;5.00;;;;;;;3.76;100.00;101038.91;6369529;23;20468;-81
2022/01/05 18:43:20;;;;;;;12.48;4.00;;;;;;;3.71;100.00;101040.53;6404312;23;20056;-82
2022/01/05 19:34:52;;;;;;;18.55;6.55;;;;;;;3.66;100.00;101127.22;6405487;23;20033;-81
2022/01/05 19:37:26;;;;;;;16.00;5.95;;;;;;;3.65;100.00;101117.75;6442170;23;20009;-79
2022/01/05 19:40:20;;;;;;;17.58;6.45;;;;;;;3.64;100.00;101128.91;6420875;23;20035;-79
2022/01/05 19:42:52;;;;;;;20.73;6.70;;;;;;;3.72;100.00;101131.63;6441643;23;20009;-78
2022/01/05 19:45:33;;;;;;;27.10;10.63;;;;;;;3.76;100.00;101136.88;6440248;23;20116;-78
2022/01/05 19:48:22;;;;;;;28.45;9.05;;;;;;;3.70;100.00;101123.00;6439219;23;20354;-79
2022/01/05 19:55:11;;;;;;;20.58;7.47;;;;;;;3.61;100.00;101134.88;6406261;23;20390;-79
2022/01/05 19:58:32;;;;;;;42.08;10.65;;;;;;;3.44;100.00;101116.44;6344601;23;20034;-80
2022/01/05 20:01:32;;;;;;;29.85;8.00;;;;;;;3.47;100.00;101126.81;6319797;23;20006;-82
2022/01/05 20:04:21;;;;;;;19.38;5.88;;;;;;;3.45;100.00;101127.66;6343245;23;20029;-77
2022/01/05 20:06:53;;;;;;;27.42;8.30;;;;;;;3.40;100.00;101131.84;6342189;23;20016;-77
2022/01/05 20:09:24;;;;;;;20.03;8.03;;;;;;;3.38;100.00;101131.81;6342124;23;20113;-81
2022/01/05 20:11:56;;;;;;;20.37;6.83;;;;;;;3.26;100.00;101137.53;6341326;23;20010;-78
2022/01/05 20:14:27;;;;;;;22.33;7.63;;;;;;;3.22;100.00;101140.00;6341069;23;20037;-79
2022/01/05 20:16:59;;;;;;;24.23;8.73;;;;;;;3.17;100.00;101142.50;6340992;23;20070;-80
2022/01/05 20:19:31;;;;;;;27.73;8.03;;;;;;;3.16;100.00;101147.59;6341327;23;20042;-77
2022/01/05 20:22:02;;;;;;;16.20;7.67;;;;;;;3.05;100.00;101155.94;6340890;23;20013;-77
2022/01/05 20:24:34;;;;;;;27.87;14.53;;;;;;;3.08;100.00;101161.16;6343318;23;20010;-80
2022/01/05 20:27:05;;;;;;;23.93;10.80;;;;;;;3.04;100.00;101161.03;6349804;23;20069;-77
2022/01/05 20:29:36;;;;;;;22.50;9.87;;;;;;;3.00;100.00;101165.25;6433891;23;20005;-75
2022/01/05 20:32:08;;;;;;;26.17;8.43;;;;;;;2.97;100.00;101169.47;6443880;23;20013;-76
2022/01/05 20:34:40;;;;;;;30.27;8.57;;;;;;;2.94;100.00;101170.25;6442939;23;20033;-78
2022/01/05 20:37:12;;;;;;;28.60;9.00;;;;;;;2.93;100.00;101173.69;6445626;23;20013;-77
2022/01/05 20:39:43;;;;;;;23.48;8.10;;;;;;;2.90;100.00;101176.19;6446552;23;20036;-77
2022/01/05 20:42:15;;;;;;;20.60;8.97;;;;;;;2.99;100.00;101184.09;6447784;23;20004;-81
2022/01/05 20:44:46;;;;;;;25.97;7.83;;;;;;;3.01;100.00;101182.47;6422841;23;19988;-74
2022/01/05 20:47:18;;;;;;;30.27;7.77;;;;;;;3.00;100.00;101193.59;6450269;23;20052;-80
2022/01/05 20:49:49;;;;;;;28.13;8.70;;;;;;;3.01;100.00;101186.72;6446451;23;20040;-77
2022/01/05 20:52:21;;;;;;;23.87;6.80;;;;;;;3.03;100.00;101185.09;6443927;23;20001;-76
2022/01/05 20:54:52;;;;;;;19.63;7.03;;;;;;;3.04;100.00;101192.84;6448062;23;20013;-76
2022/01/05 20:57:24;;;;;;;19.27;6.87;;;;;;;3.03;100.00;101185.09;6449284;23;20303;-81
2022/01/05 20:59:55;;;;;;;21.50;7.00;;;;;;;3.00;100.00;101191.00;6451915;23;20494;-81
2022/01/05 21:02:27;;;;;;;22.60;6.93;;;;;;;2.96;100.00;101204.63;6453087;23;20009;-78
2022/01/05 21:05:03;;;;;;;26.47;7.07;;;;;;;2.91;100.00;101208.81;6426521;23;20035;-81
2022/01/05 21:07:35;;;;;;;23.40;6.30;;;;;;;2.84;100.00;101209.50;6452553;23;20005;-84
2022/01/05 21:10:09;;;;;;;25.45;7.65;;;;;;;2.80;100.00;101217.97;6450773;23;20013;-83
2022/01/05 21:12:41;;;;;;;27.33;8.77;;;;;;;2.74;100.00;101219.53;6454197;23;20036;-80
2022/01/05 21:15:12;;;;;;;21.95;9.38;;;;;;;2.73;100.00;101222.06;6455785;23;19997;-80
2022/01/05 21:17:46;;;;;;;29.37;8.87;;;;;;;2.77;100.00;101217.88;6458767;23;20312;-78
2022/01/05 21:20:18;;;;;;;41.83;10.95;;;;;;;2.79;100.00;101227.41;6431131;23;20048;-81
2022/01/05 21:22:50;;;;;;;29.80;8.68;;;;;;;2.81;100.00;101227.44;6432374;23;20107;-81
2022/01/05 21:25:23;;;;;;;27.83;9.37;;;;;;;2.83;100.00;101231.78;6431500;23;20013;-80
2022/01/05 21:27:57;;;;;;;28.40;8.63;;;;;;;2.83;100.00;101234.34;6457743;23;20017;-80
2022/01/05 21:30:32;;;;;;;21.27;6.50;;;;;;;2.81;100.00;101237.72;6420432;23;20107;-80
2022/01/05 21:33:05;;;;;;;27.17;7.50;;;;;;;2.84;100.00;101237.81;6436394;23;20008;-82
2022/01/05 21:35:36;;;;;;;;;;;;;;;2.78;100.00;101229.94;6435826;23;20017;-79
2022/01/05 21:38:09;;;;;;;31.83;8.02;;;;;;;2.80;100.00;101230.84;6436023;23;19931;-79
2022/01/05 21:44:22;;;;;;;22.42;5.97;;;;;;;2.73;100.00;101233.25;6439086;22;20025;-79
2022/01/05 21:46:56;;;;;;;24.27;7.03;;;;;;;2.64;100.00;101239.84;6409369;23;20066;-79
2022/01/05 21:49:36;;;;;;;35.22;8.73;;;;;;;2.60;100.00;101236.31;6435584;23;20005;-79
2022/01/05 21:52:47;;;;;;;20.45;5.45;;;;;;;2.60;100.00;101246.63;6435068;23;20012;-77
2022/01/05 21:55:38;;;;;;;27.67;8.50;;;;;;;2.49;100.00;101243.75;6436300;23;20016;-81
2022/01/05 21:58:28;;;;;;;78.30;43.70;;;;;;;2.46;100.00;101251.38;6435668;23;20457;-78
2022/01/05 22:01:21;;;;;;;27.80;9.30;;;;;;;2.47;100.00;101260.84;6435040;23;20091;-79
2022/01/05 22:04:26;;;;;;;32.72;10.40;;;;;;;2.41;100.00;101270.97;6434288;23;20342;-78
2022/01/05 22:07:16;;;;;;;41.25;15.80;;;;;;;2.39;100.00;101275.22;6434659;23;20008;-79
2022/01/05 22:10:12;;;;;;;32.05;9.98;;;;;;;2.36;100.00;101282.84;6434855;23;20009;-80
2022/01/05 22:13:15;;;;;;;39.22;11.80;;;;;;;2.43;100.00;101287.34;6435538;23;20016;-80
2022/01/05 22:19:14;;;;;;;41.63;22.45;;;;;;;2.36;100.00;101286.28;6435478;23;20013;-80
2022/01/05 22:21:55;;;;;;;29.67;13.57;;;;;;;2.23;100.00;101279.03;6435729;23;20001;-79
2022/01/05 22:24:26;;;;;;;31.58;9.85;;;;;;;2.31;100.00;101289.56;6434541;23;20013;-79
2022/01/05 22:27:06;;;;;;;24.27;10.63;;;;;;;2.26;100.00;101284.28;6434662;23;20005;-81
2022/01/05 22:29:38;;;;;;;35.45;15.23;;;;;;;2.23;100.00;101294.47;6434917;23;20341;-80
2022/01/05 22:32:09;;;;;;;35.30;18.50;;;;;;;2.21;100.00;101300.38;6434884;23;20012;-80
2022/01/05 22:34:41;;;;;;;53.47;23.53;;;;;;;2.19;100.00;101300.38;6435048;23;20017;-81
2022/01/05 22:37:12;;;;;;;31.63;13.30;;;;;;;2.18;100.00;101306.31;6436162;23;20766;-81
2022/01/05 22:39:44;;;;;;;27.27;7.37;;;;;;;2.18;100.00;101307.19;6436483;23;20414;-79
2022/01/05 22:42:15;;;;;;;26.47;7.80;;;;;;;2.25;100.00;101313.38;6437135;23;20029;-81
2022/01/05 22:44:47;;;;;;;24.67;6.90;;;;;;;2.31;100.00;101315.28;6440664;23;20028;-80
2022/01/05 22:47:18;;;;;;;27.43;6.73;;;;;;;2.39;100.00;101336.97;6442011;23;20434;-81
2022/01/05 22:49:49;;;;;;;20.60;6.47;;;;;;;2.44;100.00;101350.81;6441055;23;20035;-80
2022/01/05 22:52:21;;;;;;;22.47;7.23;;;;;;;2.54;100.00;101350.28;6438203;23;20331;-81
2022/01/05 22:54:52;;;;;;;27.23;5.90;;;;;;;2.69;100.00;101351.56;6439041;23;20370;-82
2022/01/05 22:57:24;;;;;;;20.03;5.03;;;;;;;2.67;100.00;101355.75;6437685;23;20097;-78
2022/01/05 22:59:55;;;;;;;31.40;7.10;;;;;;;2.70;100.00;101350.72;6437771;23;20016;-81
2022/01/05 23:02:26;;;;;;;21.27;4.50;;;;;;;2.66;100.00;101348.91;6438349;23;20001;-82
2022/01/05 23:04:58;;;;;;;22.90;5.97;;;;;;;2.58;100.00;101351.25;6437459;23;20008;-80
2022/01/05 23:07:29;;;;;;;20.30;4.23;;;;;;;2.51;100.00;101357.03;6435022;23;20739;-81
2022/01/05 23:10:00;;;;;;;20.23;4.70;;;;;;;2.49;100.00;101359.53;6435612;23;20027;-79
2022/01/05 23:12:32;;;;;;;23.60;6.53;;;;;;;2.46;100.00;101353.44;6435747;23;20013;-82
2022/01/05 23:20:51;;;;;;;28.10;5.95;;;;;;;2.43;100.00;101366.22;6435008;23;20107;-80
2022/01/05 23:23:32;;;;;;;22.00;5.88;;;;;;;2.35;100.00;101359.16;6434881;23;20016;-80
2022/01/05 23:26:26;;;;;;;21.67;5.90;;;;;;;2.38;100.00;101373.78;6434744;23;20067;-80
2022/01/05 23:29:17;;;;;;;23.17;4.53;;;;;;;2.35;100.00;101371.13;6408976;23;20048;-77
2022/01/05 23:32:04;;;;;;;23.05;5.07;;;;;;;2.30;100.00;101367.53;6410188;23;20382;-82
2022/01/05 23:34:35;;;;;;;25.00;5.22;;;;;;;2.24;100.00;101373.41;6435399;23;20020;-82
2022/01/05 23:37:15;;;;;;;25.60;6.70;;;;;;;2.14;100.00;101361.06;6418046;23;20022;-80
2022/01/05 23:39:58;;;;;;;25.58;4.68;;;;;;;2.10;100.00;101364.38;6432756;23;20049;-77